Time;durP1;ratioP1;P1;durP2;ratioP2;P2;SDS_P1;SDS_P2;PMS_P1;PMS_P2;Temp;Humidity;BMP_temperature;BMP_pressure;BME280_temperature;BME280_humidity;BME280_pressure;Samples;Min_cycle;Max_cycle;Signal;HPM_P1;HPM_P2
2023/09/01 00:02:19;;;;;;;72.78;69.18;;;;;;;22.95;100.00;100958.84;5101832;28;20479;-75
2023/09/01 00:04:46;;;;;;;132.27;126.40;;;;;;;23.17;100.00;100955.66;5091610;28;20044;-76
2023/09/01 00:07:13;;;;;;;135.20;129.10;;;;;;;22.46;100.00;100965.09;5094199;28;20044;-76
2023/09/01 00:09:40;;;;;;;97.38;92.88;;;;;;;23.51;100.00;100956.44;5095436;28;20048;-76
2023/09/01 00:12:07;;;;;;;88.35;84.45;;;;;;;22.80;100.00;100957.81;5096326;28;20044;-76
2023/09/01 00:14:34;;;;;;;82.53;78.93;;;;;;;22.51;100.00;100968.59;5093060;28;20049;-75
2023/09/01 00:17:04;;;;;;;95.43;91.30;;;;;;;22.49;100.00;100961.81;5094606;28;20493;-76
2023/09/01 00:19:32;;;;;;;64.70;61.70;;;;;;;22.70;100.00;100962.50;5095901;28;20048;-75
2023/09/01 00:21:59;;;;;;;61.13;58.13;;;;;;;22.15;100.00;100971.44;5091843;28;20052;-76
2023/09/01 00:24:26;;;;;;;55.78;52.97;;;;;;;22.11;100.00;100975.75;5092170;28;20075;-76
2023/09/01 00:26:53;;;;;;;49.25;46.75;;;;;;;21.90;100.00;100969.59;5087506;28;20046;-75
2023/09/01 00:29:20;;;;;;;53.20;50.60;;;;;;;21.86;100.00;100968.56;5093729;28;20059;-75
2023/09/01 00:31:47;;;;;;;65.20;62.20;;;;;;;21.84;100.00;100970.72;5104189;28;20078;-76
2023/09/01 00:34:13;;;;;;;70.88;67.45;;;;;;;21.91;100.00;100968.53;5102204;28;20067;-76
2023/09/01 00:36:42;;;;;;;58.20;55.40;;;;;;;21.76;100.00;100973.19;5101119;28;20044;-76
2023/09/01 00:39:09;;;;;;;55.33;52.60;;;;;;;21.79;100.00;100978.84;5096384;28;20527;-76
2023/09/01 00:41:36;;;;;;;57.58;54.67;;;;;;;21.83;100.00;100984.50;5092361;28;20100;-75
2023/09/01 00:44:03;;;;;;;58.13;55.13;;;;;;;21.81;100.00;100983.97;5091927;28;20044;-76
2023/09/01 00:46:32;;;;;;;69.18;66.03;;;;;;;21.92;100.00;100990.97;5100323;28;20081;-76
2023/09/01 00:48:59;;;;;;;69.90;66.70;;;;;;;21.66;100.00;100987.50;5100867;28;20500;-76
2023/09/01 00:51:28;;;;;;;54.35;51.65;;;;;;;21.89;100.00;100986.94;5091003;28;20051;-75
2023/09/01 00:53:56;;;;;;;54.67;51.67;;;;;;;21.67;100.00;100989.97;5093704;28;20045;-75
2023/09/01 00:56:23;;;;;;;59.25;56.05;;;;;;;21.47;100.00;100984.59;5094493;28;20052;-76
2023/09/01 00:58:50;;;;;;;51.55;48.65;;;;;;;21.25;100.00;100988.34;5096545;28;20060;-76
2023/09/01 01:01:17;;;;;;;60.83;57.72;;;;;;;21.45;100.00;100992.13;5095996;28;20048;-75
2023/09/01 01:03:44;;;;;;;59.70;56.60;;;;;;;21.50;100.00;101001.06;5097550;28;20040;-76
2023/09/01 01:06:19;;;;;;;57.88;54.88;;;;;;;21.44;100.00;100996.75;5096513;28;20051;-76
2023/09/01 01:09:08;;;;;;;58.20;55.13;;;;;;;21.48;100.00;100997.84;5095567;28;20066;-75
2023/09/01 01:11:45;;;;;;;57.28;54.17;;;;;;;21.00;100.00;101007.25;5092984;28;20043;-76
2023/09/01 01:14:16;;;;;;;54.28;51.17;;;;;;;21.22;100.00;101004.28;5095243;28;20642;-75
2023/09/01 01:16:44;;;;;;;61.53;58.22;;;;;;;21.36;100.00;101007.28;5098468;28;20051;-76
2023/09/01 01:19:37;;;;;;;54.20;51.30;;;;;;;21.60;100.00;101007.53;5099936;28;20416;-76
2023/09/01 01:22:06;;;;;;;51.38;48.47;;;;;;;21.25;100.00;101006.44;5099159;28;20052;-76
2023/09/01 01:24:34;;;;;;;55.03;51.83;;;;;;;21.28;100.00;101006.72;5099079;28;20048;-76
2023/09/01 01:27:04;;;;;;;56.28;53.17;;;;;;;21.16;100.00;101016.19;5104750;28;20047;-76
2023/09/01 01:29:31;;;;;;;54.47;51.53;;;;;;;21.00;100.00;101020.75;5093918;28;20429;-75
2023/09/01 01:32:00;;;;;;;48.58;46.17;;;;;;;21.00;100.00;101021.56;5094251;28;20463;-76
2023/09/01 01:34:32;;;;;;;63.13;58.95;;;;;;;20.99;100.00;101017.22;5093291;28;20501;-76
2023/09/01 01:37:07;;;;;;;62.47;59.47;;;;;;;20.81;100.00;101029.34;5095650;28;20043;-75
2023/09/01 01:39:36;;;;;;;54.53;51.83;;;;;;;20.64;100.00;101017.16;5095970;28;20059;-76
2023/09/01 01:42:09;;;;;;;65.03;61.97;;;;;;;20.68;100.00;101023.66;5094320;28;20055;-75
2023/09/01 01:44:38;;;;;;;62.83;59.53;;;;;;;20.55;100.00;101027.66;5089797;28;20048;-75
2023/09/01 01:47:07;;;;;;;63.28;60.08;;;;;;;20.28;100.00;101028.59;5093682;28;20078;-76
2023/09/01 01:49:34;;;;;;;64.55;61.45;;;;;;;20.35;100.00;101034.56;5092689;28;20048;-76
2023/09/01 01:52:02;;;;;;;60.42;57.53;;;;;;;20.33;100.00;101030.50;5094594;28;20474;-76
2023/09/01 01:54:29;;;;;;;50.97;48.47;;;;;;;20.06;100.00;101036.88;5096855;28;20043;-75
2023/09/01 01:56:58;;;;;;;53.35;50.65;;;;;;;20.01;100.00;101039.53;5094481;28;20040;-76
2023/09/01 01:59:24;;;;;;;60.78;57.58;;;;;;;19.84;100.00;101042.38;5090988;28;20433;-76
2023/09/01 02:01:51;;;;;;;61.13;58.15;;;;;;;19.72;100.00;101043.63;5097014;28;20573;-76
2023/09/01 02:04:18;;;;;;;72.82;69.63;;;;;;;19.84;100.00;101038.88;5097079;28;20052;-76
2023/09/01 02:06:45;;;;;;;74.20;70.90;;;;;;;19.17;100.00;101038.31;5096713;28;20486;-75
2023/09/01 02:09:13;;;;;;;66.18;63.08;;;;;;;19.28;100.00;101044.63;5096087;28;20075;-76
2023/09/01 02:11:40;;;;;;;63.88;60.88;;;;;;;19.24;100.00;101046.19;5095922;28;20067;-75
2023/09/01 02:14:10;;;;;;;63.10;60.00;;;;;;;18.95;100.00;101051.03;5094298;28;20086;-75
2023/09/01 02:16:39;;;;;;;58.97;56.17;;;;;;;18.61;100.00;101047.63;5094052;28;20052;-75
2023/09/01 02:19:08;;;;;;;47.60;45.30;;;;;;;18.70;100.00;101067.69;5094037;28;20511;-75
2023/09/01 02:21:35;;;;;;;76.38;72.78;;;;;;;19.03;100.00;101057.81;5091210;28;20090;-76
2023/09/01 02:24:02;;;;;;;54.28;51.67;;;;;;;19.09;100.00;101056.81;5092879;28;20044;-76
2023/09/01 02:26:29;;;;;;;69.85;66.70;;;;;;;19.01;100.00;101055.41;5095989;28;20548;-76
2023/09/01 02:28:56;;;;;;;63.60;60.70;;;;;;;18.86;100.00;101058.75;5094777;28;20047;-76
2023/09/01 02:31:25;;;;;;;57.45;54.65;;;;;;;19.05;100.00;101056.50;5101956;28;20519;-76
2023/09/01 02:33:52;;;;;;;59.95;57.05;;;;;;;19.23;100.00;101060.72;5093001;28;20048;-76
2023/09/01 02:36:23;;;;;;;59.35;56.63;;;;;;;18.85;100.00;101069.75;5091352;28;20055;-76
2023/09/01 02:38:50;;;;;;;61.13;58.33;;;;;;;19.05;100.00;101066.47;5096638;28;20478;-76
2023/09/01 02:41:17;;;;;;;55.50;52.90;;;;;;;18.84;100.00;101060.84;5093492;28;20047;-76
2023/09/01 02:43:44;;;;;;;52.95;50.47;;;;;;;18.66;100.00;101070.03;5094955;28;20047;-76
2023/09/01 02:46:11;;;;;;;36.58;34.72;;;;;;;18.71;100.00;101069.31;5093315;28;20052;-76
2023/09/01 02:48:39;;;;;;;56.05;53.15;;;;;;;18.25;100.00;101074.09;5094843;28;20040;-76
2023/09/01 02:51:06;;;;;;;53.85;51.33;;;;;;;18.19;100.00;101072.41;5098350;28;20047;-76
2023/09/01 02:53:33;;;;;;;51.13;48.42;;;;;;;17.77;100.00;101073.69;5095086;28;20044;-76
2023/09/01 02:56:02;;;;;;;53.90;51.20;;;;;;;17.86;100.00;101074.09;5094743;28;20547;-76
2023/09/01 02:58:29;;;;;;;57.92;55.15;;;;;;;18.18;100.00;101073.44;5095294;28;20052;-76
2023/09/01 03:00:56;;;;;;;60.42;57.53;;;;;;;17.99;100.00;101083.66;5094896;28;20137;-76
2023/09/01 03:03:24;;;;;;;69.32;65.82;;;;;;;17.88;100.00;101074.63;5093589;28;20052;-76
2023/09/01 03:05:52;;;;;;;58.60;55.60;;;;;;;17.61;100.00;101071.78;5091346;28;20044;-76
2023/09/01 03:08:20;;;;;;;48.35;45.95;;;;;;;17.84;100.00;101078.88;5093091;28;20135;-76
2023/09/01 03:10:47;;;;;;;46.85;44.60;;;;;;;17.73;100.00;101077.88;5102056;28;20100;-76
2023/09/01 03:13:14;;;;;;;56.38;53.47;;;;;;;17.85;100.00;101081.34;5094128;28;20047;-76
2023/09/01 03:15:41;;;;;;;78.93;75.13;;;;;;;17.63;100.00;101077.72;5088897;28;20044;-76
2023/09/01 03:18:09;;;;;;;55.67;52.97;;;;;;;17.29;100.00;101079.56;5093915;28;20493;-75
2023/09/01 03:20:35;;;;;;;73.10;69.63;;;;;;;17.42;100.00;101073.88;5094480;28;20521;-76
2023/09/01 03:23:04;;;;;;;52.00;48.65;;;;;;;17.28;100.00;101070.69;5096228;28;20051;-75
2023/09/01 03:25:31;;;;;;;52.78;49.97;;;;;;;17.13;100.00;101075.78;5090837;28;20585;-76
2023/09/01 03:27:58;;;;;;;51.95;49.42;;;;;;;17.24;100.00;101080.25;5092085;28;20429;-75
2023/09/01 03:30:25;;;;;;;34.08;32.28;;;;;;;17.56;100.00;101079.75;5091154;28;20051;-75
2023/09/01 03:32:52;;;;;;;39.38;37.42;;;;;;;17.30;100.00;101084.66;5092340;28;20044;-75
2023/09/01 03:35:19;;;;;;;42.17;39.97;;;;;;;17.27;100.00;101089.72;5095103;28;20048;-76
2023/09/01 03:37:46;;;;;;;47.13;44.72;;;;;;;17.09;100.00;101088.03;5093569;28;20479;-76
2023/09/01 03:40:15;;;;;;;34.97;33.25;;;;;;;17.13;100.00;101097.25;5093146;28;20056;-76
2023/09/01 03:42:42;;;;;;;28.60;27.20;;;;;;;17.03;100.00;101092.50;5092823;28;20512;-76
2023/09/01 03:45:09;;;;;;;25.90;24.50;;;;;;;16.90;100.00;101098.16;5093792;28;20047;-76
2023/09/01 03:47:36;;;;;;;24.83;23.45;;;;;;;17.38;100.00;101100.38;5094108;28;20052;-76
2023/09/01 03:50:03;;;;;;;20.45;19.25;;;;;;;17.60;100.00;101103.19;5095563;28;20422;-76
2023/09/01 03:52:30;;;;;;;19.98;18.88;;;;;;;16.58;100.00;101103.94;5090445;28;20441;-76
2023/09/01 03:54:56;;;;;;;21.30;20.10;;;;;;;17.15;100.00;101100.50;5094508;28;20051;-76
2023/09/01 03:57:25;;;;;;;20.58;19.38;;;;;;;17.06;100.00;101108.13;5088611;28;20414;-76
2023/09/01 03:59:52;;;;;;;23.48;22.17;;;;;;;16.68;100.00;101114.84;5092572;28;20922;-76
2023/09/01 04:02:19;;;;;;;24.95;23.55;;;;;;;16.48;100.00;101114.41;5093125;28;20055;-76
2023/09/01 04:04:45;;;;;;;26.83;20.60;;;;;;;17.12;100.00;101117.09;5091250;28;20040;-76
2023/09/01 04:07:12;;;;;;;21.55;20.35;;;;;;;17.68;100.00;101112.72;5095993;28;20040;-76
2023/09/01 04:09:39;;;;;;;22.15;20.92;;;;;;;17.56;100.00;101118.16;5094165;28;20044;-76
2023/09/01 04:12:07;;;;;;;20.45;19.25;;;;;;;17.20;100.00;101116.72;5094782;28;20048;-76
2023/09/01 04:14:35;;;;;;;20.90;19.70;;;;;;;17.78;100.00;101112.09;5094395;28;20059;-76
2023/09/01 04:17:03;;;;;;;44.15;21.88;;;;;;;17.73;100.00;101109.28;5093150;28;20729;-76
2023/09/01 04:19:30;;;;;;;23.10;21.80;;;;;;;18.12;100.00;101115.56;5093394;28;20044;-76
2023/09/01 04:21:56;;;;;;;21.88;20.58;;;;;;;18.22;100.00;101114.94;5092357;28;20048;-76
2023/09/01 04:24:23;;;;;;;22.00;20.60;;;;;;;18.20;100.00;101109.78;5098258;28;20502;-76
2023/09/01 04:26:50;;;;;;;21.70;20.40;;;;;;;18.54;100.00;101117.78;5093502;28;20051;-76
2023/09/01 04:29:17;;;;;;;20.60;19.30;;;;;;;18.41;100.00;101121.63;5092452;28;20047;-76
2023/09/01 04:31:48;;;;;;;20.17;18.98;;;;;;;18.67;100.00;101122.81;5094702;28;20060;-76
2023/09/01 04:34:15;;;;;;;20.50;19.10;;;;;;;18.75;100.00;101127.75;5097562;28;20062;-76
2023/09/01 04:36:42;;;;;;;21.85;20.48;;;;;;;18.94;100.00;101120.19;5095501;28;20059;-76
2023/09/01 04:39:09;;;;;;;21.60;20.25;;;;;;;18.60;100.00;101127.53;5099406;28;20054;-76
2023/09/01 04:41:36;;;;;;;20.67;19.30;;;;;;;18.73;100.00;101127.22;5093729;28;20105;-76
2023/09/01 04:44:03;;;;;;;20.70;19.40;;;;;;;18.95;100.00;101135.28;5096489;28;20036;-76
2023/09/01 04:46:30;;;;;;;21.83;20.23;;;;;;;19.11;100.00;101132.75;5096729;28;20048;-76
2023/09/01 04:48:58;;;;;;;21.00;19.50;;;;;;;19.31;100.00;101132.97;5101077;28;20467;-76
2023/09/01 04:51:25;;;;;;;21.00;19.60;;;;;;;19.52;100.00;101135.88;5093781;28;20668;-76
2023/09/01 04:53:52;;;;;;;20.52;19.02;;;;;;;19.67;100.00;101139.53;5093495;28;20047;-76
2023/09/01 04:56:19;;;;;;;21.45;19.95;;;;;;;19.91;100.00;101141.91;5095101;28;20056;-76
2023/09/01 04:58:46;;;;;;;21.98;20.50;;;;;;;20.56;100.00;101140.72;5097794;28;20052;-76
2023/09/01 05:01:12;;;;;;;21.67;20.17;;;;;;;21.07;100.00;101142.81;5096470;28;20054;-76
2023/09/01 05:03:39;;;;;;;20.75;19.25;;;;;;;20.42;100.00;101133.31;5097976;28;20035;-77
2023/09/01 05:06:10;;;;;;;21.30;19.80;;;;;;;21.06;100.00;101146.59;5095989;28;20516;-77
2023/09/01 05:08:37;;;;;;;22.15;20.55;;;;;;;20.74;100.00;101138.63;5096411;28;20044;-76
2023/09/01 05:11:04;;;;;;;21.35;19.95;;;;;;;20.75;100.00;101140.25;5098069;28;20489;-76
2023/09/01 05:13:31;;;;;;;20.88;19.58;;;;;;;20.67;100.00;101149.69;5097190;28;20416;-76
2023/09/01 05:15:58;;;;;;;20.60;19.30;;;;;;;21.48;100.00;101145.63;5095391;28;20037;-76
2023/09/01 05:18:25;;;;;;;20.35;19.05;;;;;;;20.42;100.00;101138.72;5091456;28;20082;-77
2023/09/01 05:20:52;;;;;;;19.70;18.45;;;;;;;20.63;100.00;101147.75;5094399;28;20063;-76
2023/09/01 05:23:20;;;;;;;20.90;19.50;;;;;;;20.48;100.00;101151.97;5091839;28;20445;-76
2023/09/01 05:25:52;;;;;;;19.58;18.27;;;;;;;21.24;100.00;101148.81;5095430;28;20124;-77
2023/09/01 05:28:19;;;;;;;19.63;18.33;;;;;;;22.30;100.00;101143.75;5094069;28;20047;-77
2023/09/01 05:30:47;;;;;;;20.25;18.65;;;;;;;20.47;100.00;101142.25;5096602;28;20301;-76
2023/09/01 05:33:17;;;;;;;18.92;17.65;;;;;;;21.87;100.00;101140.50;5094598;28;20066;-77
2023/09/01 05:35:43;;;;;;;19.35;18.05;;;;;;;20.90;100.00;101144.91;5093744;28;20060;-76
2023/09/01 05:38:10;;;;;;;20.35;18.95;;;;;;;21.43;100.00;101154.53;5093823;28;20040;-77
2023/09/01 05:40:38;;;;;;;20.80;19.50;;;;;;;22.25;100.00;101149.16;5092573;28;20052;-77
2023/09/01 05:43:05;;;;;;;40.33;37.78;;;;;;;22.69;100.00;101159.31;5091896;28;20051;-77
2023/09/01 05:45:32;;;;;;;29.20;27.42;;;;;;;21.97;100.00;101153.22;5096798;28;20067;-77
2023/09/01 05:47:59;;;;;;;22.23;20.73;;;;;;;22.88;100.00;101158.72;5095605;28;20048;-77
2023/09/01 05:50:26;;;;;;;22.77;21.27;;;;;;;21.73;100.00;101155.66;5092362;28;20442;-76
2023/09/01 05:52:53;;;;;;;22.48;20.95;;;;;;;21.39;100.00;101164.28;5092788;28;20040;-76
2023/09/01 05:55:19;;;;;;;23.27;21.88;;;;;;;20.51;100.00;101158.72;5094716;28;20059;-76
2023/09/01 05:57:48;;;;;;;24.40;22.80;;;;;;;20.93;100.00;101158.69;5092285;28;20493;-76
2023/09/01 06:00:15;;;;;;;21.73;20.17;;;;;;;22.36;100.00;101160.75;5092525;28;20040;-76
2023/09/01 06:02:42;;;;;;;22.80;21.10;;;;;;;21.94;100.00;101149.16;5093294;28;20051;-76
2023/09/01 06:05:09;;;;;;;23.40;21.88;;;;;;;21.73;100.00;101148.34;5096191;28;20090;-76
2023/09/01 06:07:37;;;;;;;22.55;21.05;;;;;;;22.37;100.00;101155.06;5096175;28;20048;-76
2023/09/01 06:10:04;;;;;;;22.60;21.10;;;;;;;21.58;100.00;101159.16;5095947;28;20048;-76
2023/09/01 06:12:31;;;;;;;22.13;20.63;;;;;;;21.86;100.00;101160.50;5098399;28;20059;-76
2023/09/01 06:14:59;;;;;;;26.80;25.13;;;;;;;21.70;100.00;101167.00;5097784;28;20497;-76
2023/09/01 06:17:26;;;;;;;25.08;23.48;;;;;;;21.82;100.00;101158.63;5097435;28;20044;-76
2023/09/01 06:19:53;;;;;;;25.60;24.00;;;;;;;22.01;100.00;101150.78;5097117;28;20428;-76
2023/09/01 06:22:20;;;;;;;26.58;24.88;;;;;;;21.71;100.00;101158.63;5096139;28;20424;-76
2023/09/01 06:24:47;;;;;;;26.23;24.42;;;;;;;22.49;100.00;101168.31;5096834;28;20432;-76
2023/09/01 06:27:14;;;;;;;27.05;25.35;;;;;;;23.49;100.00;101167.34;5090998;28;20051;-76
2023/09/01 06:29:40;;;;;;;29.35;27.48;;;;;;;23.16;100.00;101162.66;5091394;28;20048;-77
2023/09/01 06:32:11;;;;;;;28.35;26.65;;;;;;;24.17;100.00;101158.38;5104851;28;20048;-77
2023/09/01 06:34:39;;;;;;;28.95;27.23;;;;;;;23.53;100.00;101167.56;5095014;28;20497;-76
2023/09/01 06:37:07;;;;;;;26.80;25.20;;;;;;;23.13;100.00;101168.63;5094450;28;20047;-76
2023/09/01 06:39:34;;;;;;;28.63;26.73;;;;;;;23.50;100.00;101181.69;5095517;28;20047;-76
2023/09/01 06:42:01;;;;;;;25.73;24.08;;;;;;;24.31;100.00;101184.88;5091698;28;20086;-76
2023/09/01 06:44:28;;;;;;;25.48;23.77;;;;;;;24.18;100.00;101181.72;5091870;28;20079;-75
2023/09/01 06:46:55;;;;;;;24.92;23.23;;;;;;;23.25;100.00;101194.31;5088397;28;20059;-76
2023/09/01 06:49:23;;;;;;;25.80;24.20;;;;;;;22.73;100.00;101200.19;5095572;28;20233;-76
2023/09/01 06:51:50;;;;;;;25.52;23.92;;;;;;;23.07;100.00;101200.34;5094504;28;20051;-76
2023/09/01 06:54:17;;;;;;;24.08;22.48;;;;;;;22.78;100.00;101209.09;5094102;28;20047;-76
2023/09/01 06:56:44;;;;;;;22.35;20.85;;;;;;;23.12;100.00;101205.75;5093833;28;20048;-76
2023/09/01 06:59:13;;;;;;;25.23;23.33;;;;;;;23.44;100.00;101208.00;5096709;28;20459;-76
2023/09/01 07:01:40;;;;;;;24.45;22.55;;;;;;;23.03;100.00;101213.66;5096079;28;20048;-76
2023/09/01 07:04:07;;;;;;;23.20;21.60;;;;;;;23.95;100.00;101215.03;5095495;28;20051;-76
2023/09/01 07:06:35;;;;;;;22.05;20.55;;;;;;;24.09;100.00;101212.47;5095457;28;20059;-76
2023/09/01 07:09:03;;;;;;;25.00;23.00;;;;;;;23.70;100.00;101216.03;5095967;28;20436;-76
2023/09/01 07:11:33;;;;;;;24.15;22.45;;;;;;;25.12;100.00;101205.69;5094189;28;20058;-77
2023/09/01 07:13:59;;;;;;;24.65;23.02;;;;;;;23.19;100.00;101217.09;5092295;28;20044;-76
2023/09/01 07:16:26;;;;;;;25.35;23.65;;;;;;;23.52;100.00;101231.81;5093619;28;20493;-76
2023/09/01 07:18:53;;;;;;;23.90;22.30;;;;;;;24.56;100.00;101222.63;5093542;28;20048;-76
2023/09/01 07:21:20;;;;;;;23.60;21.90;;;;;;;24.33;100.00;101215.25;5092763;28;20070;-76
2023/09/01 07:23:49;;;;;;;22.52;20.92;;;;;;;23.52;100.00;101233.72;5094810;28;20051;-76
2023/09/01 07:26:16;;;;;;;23.60;21.90;;;;;;;23.43;100.00;101233.50;5094941;28;20071;-76
2023/09/01 07:28:44;;;;;;;21.88;20.13;;;;;;;23.61;100.00;101236.66;5094122;28;20055;-76
2023/09/01 07:31:12;;;;;;;21.50;20.10;;;;;;;;;;5098136;28;20444;-76
2023/09/01 07:33:41;;;;;;;23.85;22.13;;;;;;;23.79;100.00;101240.66;5095172;28;20048;-76
2023/09/01 07:36:09;;;;;;;23.13;21.42;;;;;;;23.94;100.00;101238.63;5092243;28;20047;-76
2023/09/01 07:38:36;;;;;;;23.80;22.10;;;;;;;24.60;100.00;101217.41;5092425;28;20032;-76
2023/09/01 07:41:04;;;;;;;22.80;21.20;;;;;;;25.46;100.00;101234.59;5089182;28;20056;-77
2023/09/01 07:43:31;;;;;;;21.63;20.02;;;;;;;24.29;100.00;101238.63;5092211;28;20052;-77
2023/09/01 07:45:58;;;;;;;22.27;20.67;;;;;;;24.88;100.00;101238.31;5092396;28;20046;-76
2023/09/01 07:48:25;;;;;;;23.13;21.42;;;;;;;23.89;100.00;101235.94;5093775;28;20063;-76
2023/09/01 07:50:52;;;;;;;23.63;21.92;;;;;;;24.13;100.00;101240.66;5093592;28;20450;-77
2023/09/01 07:53:19;;;;;;;24.48;22.67;;;;;;;25.07;100.00;101227.47;5092251;28;20411;-76
2023/09/01 07:55:46;;;;;;;25.30;23.08;;;;;;;24.24;100.00;101236.78;5092093;28;20036;-76
2023/09/01 07:58:14;;;;;;;24.08;22.58;;;;;;;24.83;100.00;101230.22;5094290;28;20083;-76
2023/09/01 08:00:42;;;;;;;23.60;21.88;;;;;;;24.56;100.00;101227.25;5090457;28;20509;-76
2023/09/01 08:03:10;;;;;;;25.45;23.88;;;;;;;24.57;100.00;101224.25;5090282;28;20083;-75
2023/09/01 08:05:38;;;;;;;26.38;24.77;;;;;;;24.91;100.00;101231.50;5086790;28;20157;-76
2023/09/01 08:08:06;;;;;;;25.98;24.48;;;;;;;24.91;100.00;101228.78;5099219;28;20551;-76
2023/09/01 08:10:33;;;;;;;27.80;26.10;;;;;;;25.53;100.00;101221.44;5098660;28;20063;-76
2023/09/01 08:13:02;;;;;;;28.67;27.08;;;;;;;24.89;100.00;101225.53;5095446;28;20520;-76
2023/09/01 08:15:30;;;;;;;38.47;26.35;;;;;;;25.85;100.00;101219.13;5095729;28;20044;-76
2023/09/01 08:17:57;;;;;;;25.85;24.35;;;;;;;26.09;100.00;101217.06;5095819;28;20487;-76
2023/09/01 08:20:24;;;;;;;26.08;24.38;;;;;;;25.36;100.00;101216.53;5095117;28;20052;-76
2023/09/01 08:22:51;;;;;;;26.27;24.67;;;;;;;25.91;100.00;101220.66;5092791;28;20102;-76
2023/09/01 08:25:18;;;;;;;26.15;24.45;;;;;;;25.65;100.00;101221.00;5094071;28;20044;-76
2023/09/01 08:27:45;;;;;;;24.58;22.92;;;;;;;25.91;100.00;101218.72;5095507;28;20493;-76
2023/09/01 08:30:13;;;;;;;25.15;23.55;;;;;;;25.84;100.00;101214.75;5093919;28;20457;-76
2023/09/01 08:32:42;;;;;;;29.83;28.23;;;;;;;26.87;100.00;101214.56;5095481;28;20052;-76
2023/09/01 08:35:11;;;;;;;28.80;27.30;;;;;;;26.07;100.00;101222.00;5093042;28;20044;-77
2023/09/01 08:37:38;;;;;;;27.20;25.58;;;;;;;25.56;100.00;101212.69;5102361;28;20509;-76
2023/09/01 08:40:09;;;;;;;29.33;27.83;;;;;;;26.91;100.00;101210.94;5100967;28;20056;-76
2023/09/01 08:42:39;;;;;;;30.48;28.77;;;;;;;26.42;100.00;101212.41;5099218;28;20054;-76
2023/09/01 08:45:07;;;;;;;28.95;27.45;;;;;;;26.84;100.00;101213.28;5092788;28;20058;-76
2023/09/01 08:47:43;;;;;;;27.75;26.00;;;;;;;27.72;100.00;101213.00;5098552;28;20047;-77
2023/09/01 08:50:12;;;;;;;26.73;24.95;;;;;;;27.71;100.00;101218.75;5091850;28;20063;-76
2023/09/01 08:52:39;;;;;;;25.02;23.52;;;;;;;28.17;100.00;101206.72;5097154;28;20086;-77
2023/09/01 08:55:07;;;;;;;27.13;25.50;;;;;;;27.94;100.00;101208.69;5098371;28;20523;-77
2023/09/01 08:57:34;;;;;;;28.40;26.80;;;;;;;27.94;100.00;101211.41;5100279;28;20066;-77
2023/09/01 09:00:01;;;;;;;31.63;30.02;;;;;;;27.61;100.00;101215.16;5104351;28;20043;-77
2023/09/01 09:02:27;;;;;;;27.30;25.77;;;;;;;29.15;100.00;101202.94;5094080;28;20051;-77
2023/09/01 09:04:55;;;;;;;26.58;25.00;;;;;;;28.38;100.00;101206.97;5093263;28;20040;-77
2023/09/01 09:07:23;;;;;;;36.90;35.10;;;;;;;29.03;100.00;101203.56;5099359;28;20082;-77
2023/09/01 09:09:51;;;;;;;27.45;25.75;;;;;;;29.73;100.00;101206.38;5100425;28;20060;-77
2023/09/01 09:12:19;;;;;;;37.92;35.72;;;;;;;28.73;100.00;101205.22;5092960;28;20055;-77
2023/09/01 09:14:52;;;;;;;27.98;26.10;;;;;;;28.97;100.00;101199.34;5093205;28;20044;-77
2023/09/01 09:17:22;;;;;;;27.73;25.70;;;;;;;27.79;100.00;101209.88;5100662;28;20051;-77
2023/09/01 09:19:53;;;;;;;27.45;25.58;;;;;;;29.57;100.00;101200.56;5099788;28;20048;-77
2023/09/01 09:22:20;;;;;;;28.40;26.30;;;;;;;29.98;100.00;101202.78;5100453;28;20059;-77
2023/09/01 09:24:49;;;;;;;27.40;25.23;;;;;;;28.70;100.00;101201.19;5095196;28;20520;-77
2023/09/01 09:27:16;;;;;;;32.95;30.75;;;;;;;27.73;100.00;101206.41;5094875;28;20097;-77
2023/09/01 09:29:45;;;;;;;26.00;24.20;;;;;;;28.48;100.00;101204.81;5096969;28;20402;-77
2023/09/01 09:32:19;;;;;;;32.17;29.88;;;;;;;29.89;100.00;101199.25;5086792;28;20139;-77
2023/09/01 09:35:08;;;;;;;25.02;23.33;;;;;;;29.60;100.00;101199.91;5094219;28;20132;-77
2023/09/01 09:37:36;;;;;;;38.53;36.53;;;;;;;30.43;100.00;101194.13;5098108;28;20130;-77
2023/09/01 09:40:15;;;;;;;31.30;29.52;;;;;;;29.98;100.00;101191.81;5094316;28;20051;-77
2023/09/01 09:42:44;;;;;;;32.25;30.45;;;;;;;27.39;100.00;101196.03;5100146;28;20056;-77
2023/09/01 09:45:32;;;;;;;28.95;27.35;;;;;;;30.28;100.00;101183.72;5098486;28;20054;-77
2023/09/01 09:48:02;;;;;;;29.92;28.23;;;;;;;29.47;100.00;101198.94;5099551;28;20052;-77
2023/09/01 09:50:29;;;;;;;31.45;29.42;;;;;;;30.52;100.00;101194.88;5095967;28;20500;-77
2023/09/01 09:52:59;;;;;;;38.38;36.08;;;;;;;32.06;100.00;101191.69;5096445;28;20444;-77
2023/09/01 09:55:29;;;;;;;31.88;30.08;;;;;;;31.97;100.00;101188.22;5093912;28;20079;-77
2023/09/01 09:58:05;;;;;;;32.05;29.95;;;;;;;32.22;100.00;101186.31;5092765;28;20436;-77
2023/09/01 10:00:41;;;;;;;29.42;27.52;;;;;;;32.23;100.00;101190.69;5095174;28;20498;-76
2023/09/01 10:03:09;;;;;;;28.00;26.00;;;;;;;31.13;100.00;101180.84;5091075;28;20475;-77
2023/09/01 10:05:36;;;;;;;35.83;33.72;;;;;;;29.24;100.00;101187.34;5092071;28;20052;-77
2023/09/01 10:08:05;;;;;;;30.08;28.17;;;;;;;28.33;100.00;101185.28;5091531;28;20429;-77
2023/09/01 10:10:35;;;;;;;30.10;28.20;;;;;;;29.05;100.00;101182.19;5090835;28;20052;-77
2023/09/01 10:13:07;;;;;;;26.48;24.67;;;;;;;29.64;100.00;101181.75;5083367;28;20055;-77
2023/09/01 10:15:34;;;;;;;;;;;;;;;30.47;100.00;101189.63;5091131;28;20048;-78
2023/09/01 10:18:03;;;;;;;34.88;32.97;;;;;;;31.38;100.00;101178.25;5091035;28;19920;-78
2023/09/01 10:20:31;;;;;;;40.70;38.50;;;;;;;31.80;100.00;101184.50;5088874;28;20044;-77
2023/09/01 10:22:59;;;;;;;41.53;39.33;;;;;;;31.70;100.00;101185.72;5091796;28;20055;-77
2023/09/01 10:25:26;;;;;;;31.17;29.27;;;;;;;31.55;100.00;101185.53;5091313;28;20060;-78
2023/09/01 10:28:07;;;;;;;36.35;34.05;;;;;;;32.84;91.79;101169.50;5091067;28;20472;-77
2023/09/01 10:30:36;;;;;;;35.70;33.70;;;;;;;32.19;94.37;101179.56;5099738;28;20449;-77
2023/09/01 10:33:06;;;;;;;38.10;36.00;;;;;;;32.29;100.00;101176.38;5093197;28;20497;-77
2023/09/01 10:35:41;;;;;;;37.80;35.78;;;;;;;32.34;100.00;101176.13;5096072;28;20044;-77
2023/09/01 10:38:18;;;;;;;39.92;37.83;;;;;;;30.74;100.00;101182.88;5093113;28;20044;-77
2023/09/01 10:40:48;;;;;;;38.50;36.20;;;;;;;33.21;99.39;101169.44;5092027;28;20094;-77
2023/09/01 10:43:48;;;;;;;35.55;33.17;;;;;;;31.94;100.00;101173.22;5092354;28;20056;-78
2023/09/01 10:46:26;;;;;;;40.15;37.85;;;;;;;30.03;100.00;101175.22;5088804;28;20054;-77
2023/09/01 10:48:55;;;;;;;34.08;32.10;;;;;;;30.02;100.00;101178.31;5086434;28;20113;-77
2023/09/01 10:51:25;;;;;;;36.05;33.95;;;;;;;30.47;100.00;101177.81;5091859;28;20091;-77
2023/09/01 10:53:53;;;;;;;42.33;39.80;;;;;;;30.08;100.00;101177.78;5092431;28;20056;-77
2023/09/01 10:56:20;;;;;;;37.55;35.35;;;;;;;30.11;100.00;101179.88;5091405;28;20540;-77
2023/09/01 10:58:49;;;;;;;36.08;34.03;;;;;;;31.00;97.73;101184.66;5093491;28;20082;-77
2023/09/01 11:01:31;;;;;;;40.08;37.78;;;;;;;28.50;100.00;101178.00;5091282;28;20494;-77
2023/09/01 11:04:13;;;;;;;;;;;;;;;31.21;98.64;101173.69;5091018;28;20048;-77
2023/09/01 11:07:11;;;;;;;38.30;36.10;;;;;;;30.91;99.84;101171.00;5089303;28;19982;-77
2023/09/01 11:09:51;;;;;;;34.03;32.00;;;;;;;31.02;100.00;101174.97;5090080;28;20063;-77